TAF KGLD
KGLD 081720Z 0818/0918 19013KT P6SM SCT280 FM081900 19016G24KT P6SM BKN280 FM090000 17011KT P6SM BKN150 FM090300 24007KT P6SM BKN120 FM090600 29009KT P6SM SCT150 FM091700 35008KT P6SM FEW200=
METAR KGLD
WC KGLD
WS KGLD
WV KGLD